createdAt,value
2019-03-16T00:00:48.387Z,8.30
2019-03-16T00:05:54.875Z,14.17
2019-03-16T00:11:00.960Z,9.92
2019-03-16T00:16:07.038Z,6.15
2019-03-16T00:21:13.048Z,6.12
2019-03-16T00:26:19.064Z,6.14
2019-03-16T00:31:25.059Z,9.29
2019-03-16T00:36:31.080Z,4.14
2019-03-16T00:41:37.094Z,3.78
2019-03-16T00:46:43.131Z,6.00
2019-03-16T00:51:49.119Z,3.36
2019-03-16T00:56:55.142Z,3.31
2019-03-16T01:02:01.113Z,3.35
2019-03-16T01:07:07.106Z,2.61
2019-03-16T01:12:13.100Z,3.27
2019-03-16T01:17:19.074Z,3.29
2019-03-16T01:22:25.050Z,3.27
2019-03-16T01:27:31.037Z,2.70
2019-03-16T01:32:40.728Z,2.11
2019-03-16T01:37:42.509Z,2.48
2019-03-16T01:42:48.528Z,2.37
2019-03-16T01:47:54.531Z,2.23
2019-03-16T01:53:00.501Z,3.83
2019-03-16T01:58:06.505Z,2.52
2019-03-16T02:03:12.503Z,2.72
2019-03-16T02:08:18.506Z,3.62
2019-03-16T02:13:24.473Z,3.89
2019-03-16T02:18:30.467Z,3.83
2019-03-16T02:23:36.512Z,3.72
2019-03-16T02:28:42.405Z,3.80
2019-03-16T02:33:48.437Z,4.02
2019-03-16T02:38:54.426Z,4.60
2019-03-16T02:44:00.397Z,4.94
2019-03-16T02:49:06.411Z,3.66
2019-03-16T02:54:12.425Z,4.79
2019-03-16T02:59:18.427Z,4.40
2019-03-16T03:04:24.419Z,4.10
2019-03-16T03:09:30.414Z,3.59
2019-03-16T03:14:36.426Z,4.22
2019-03-16T03:19:42.399Z,2.96
2019-03-16T03:24:48.408Z,2.98
2019-03-16T03:29:57.324Z,3.03
2019-03-16T03:35:00.028Z,5.02
2019-03-16T03:40:06.077Z,3.26
2019-03-16T03:45:12.005Z,3.52
2019-03-16T03:50:18.032Z,3.90
2019-03-16T03:55:24.001Z,6.85
2019-03-16T04:00:29.997Z,4.61
2019-03-16T04:05:35.958Z,5.10
2019-03-16T04:10:41.939Z,5.29
2019-03-16T04:15:47.923Z,5.67
2019-03-16T04:20:53.921Z,5.97
2019-03-16T04:25:59.919Z,6.51
2019-03-16T04:31:05.925Z,7.37
2019-03-16T04:36:11.880Z,8.95
2019-03-16T04:41:17.867Z,14.21
2019-03-16T04:46:23.852Z,8.66
2019-03-16T04:51:29.896Z,9.14
2019-03-16T04:56:35.888Z,11.91
2019-03-16T05:01:41.899Z,9.18
2019-03-16T05:06:47.895Z,9.76
2019-03-16T05:11:53.874Z,10.16
2019-03-16T05:16:59.836Z,11.45
2019-03-16T05:22:05.822Z,12.36
2019-03-16T05:27:12.169Z,13.78
2019-03-16T05:32:18.178Z,14.32
2019-03-16T05:37:24.166Z,15.75
2019-03-16T05:42:30.119Z,18.03
2019-03-16T05:47:36.093Z,13.42
2019-03-16T05:52:42.109Z,12.10
2019-03-16T05:57:48.118Z,10.96
2019-03-16T06:02:54.124Z,11.29
2019-03-16T06:08:00.161Z,10.25
2019-03-16T06:13:06.148Z,10.39
2019-03-16T06:18:13.258Z,9.98
2019-03-16T06:23:17.665Z,9.37
2019-03-16T06:28:23.744Z,11.61
2019-03-16T06:33:29.762Z,8.80
2019-03-16T06:38:35.765Z,8.08
2019-03-16T06:43:41.814Z,7.41
2019-03-16T06:48:47.818Z,10.71
2019-03-16T06:53:53.883Z,6.64
2019-03-16T06:58:59.949Z,5.97
2019-03-16T07:04:05.921Z,8.72
2019-03-16T07:09:12.028Z,5.59
2019-03-16T07:14:18.008Z,5.88
2019-03-16T07:19:24.001Z,5.60
2019-03-16T07:24:29.984Z,5.53
2019-03-16T07:29:35.973Z,4.89
2019-03-16T07:34:41.979Z,3.66
2019-03-16T07:39:47.990Z,4.98
2019-03-16T07:45:07.260Z,2.69
2019-03-16T07:49:59.620Z,2.42
2019-03-16T07:55:05.617Z,1.81
2019-03-16T08:00:11.657Z,2.06
2019-03-16T08:05:19.195Z,0.75
2019-03-16T08:10:23.167Z,0.92
2019-03-16T08:15:29.131Z,0.81
2019-03-16T08:20:35.159Z,1.30
2019-03-16T08:25:41.184Z,1.12
2019-03-16T08:30:47.136Z,1.14
2019-03-16T08:35:53.124Z,0.96
2019-03-16T08:40:59.159Z,0.99
2019-03-16T08:46:05.062Z,1.02
2019-03-16T08:51:11.054Z,0.96
2019-03-16T08:56:17.032Z,1.36
2019-03-16T09:01:23.109Z,1.36
2019-03-16T09:06:29.117Z,1.30
2019-03-16T09:11:35.155Z,0.83
2019-03-16T09:16:41.260Z,0.82
2019-03-16T09:21:47.165Z,0.60
2019-03-16T09:26:53.142Z,0.57
2019-03-16T09:31:59.137Z,2.51
2019-03-16T09:37:05.162Z,0.89
2019-03-16T09:42:11.187Z,0.70
2019-03-16T09:47:17.224Z,0.77
2019-03-16T09:52:23.350Z,0.48
2019-03-16T09:57:29.404Z,0.62
2019-03-16T10:02:35.494Z,0.75
2019-03-16T10:07:41.500Z,1.85
2019-03-16T10:12:47.572Z,1.31
2019-03-16T10:17:53.574Z,0.75
2019-03-16T10:22:59.640Z,0.58
2019-03-16T10:28:05.652Z,0.47
2019-03-16T10:33:11.658Z,0.56
2019-03-16T10:38:17.728Z,0.91
2019-03-16T10:43:23.710Z,4.68
2019-03-16T10:48:29.696Z,2.39
2019-03-16T10:53:35.731Z,1.27
2019-03-16T10:58:41.812Z,1.24
2019-03-16T11:03:47.836Z,1.34
2019-03-16T11:08:53.884Z,1.83
2019-03-16T11:13:59.877Z,2.59
2019-03-16T11:19:05.889Z,1.17
2019-03-16T11:24:11.996Z,0.71
2019-03-16T11:29:17.974Z,0.88
2019-03-16T11:34:23.955Z,0.71
2019-03-16T11:39:32.082Z,0.89
2019-03-16T11:44:35.460Z,0.59
2019-03-16T11:49:41.520Z,0.59
2019-03-16T11:54:47.674Z,0.54
2019-03-16T11:59:53.749Z,0.52
2019-03-16T12:04:59.797Z,0.53
2019-03-16T12:10:05.857Z,0.68
2019-03-16T12:15:11.911Z,8.46
2019-03-16T12:20:18.602Z,1.80
2019-03-16T12:25:23.508Z,0.29
2019-03-16T12:30:29.529Z,0.41
2019-03-16T12:35:35.532Z,0.68
2019-03-16T12:40:41.539Z,0.70
2019-03-16T12:45:47.496Z,0.47
2019-03-16T12:50:54.513Z,0.44
2019-03-16T12:55:59.038Z,0.72
2019-03-16T13:01:05.052Z,0.55
2019-03-16T13:06:11.060Z,0.68
2019-03-16T13:11:17.078Z,0.80
2019-03-16T13:16:23.073Z,0.43
2019-03-16T13:21:29.081Z,0.69
2019-03-16T13:26:35.129Z,1.09
2019-03-16T13:31:41.203Z,2.27
2019-03-16T13:36:47.246Z,0.60
2019-03-16T13:41:53.252Z,2.37
2019-03-16T13:46:59.306Z,1.35
2019-03-16T13:52:05.355Z,0.76
2019-03-16T13:57:11.363Z,1.60
2019-03-16T14:02:17.420Z,1.81
2019-03-16T14:07:23.445Z,2.15
2019-03-16T14:12:29.502Z,1.22
2019-03-16T14:17:35.498Z,3.43
2019-03-16T14:22:41.615Z,2.45
2019-03-16T14:27:47.651Z,1.43
2019-03-16T14:32:53.751Z,2.09
2019-03-16T14:37:59.803Z,1.04
2019-03-16T14:43:05.859Z,1.39
2019-03-16T14:48:11.881Z,1.14
2019-03-16T14:53:17.881Z,1.23
2019-03-16T14:58:23.869Z,1.83
2019-03-16T15:03:29.894Z,1.45
2019-03-16T15:08:35.901Z,1.52
2019-03-16T15:13:41.932Z,1.10
2019-03-16T15:18:48.242Z,1.24
2019-03-16T15:23:54.285Z,0.99
2019-03-16T15:29:00.440Z,1.48
2019-03-16T15:34:06.405Z,1.04
2019-03-16T15:39:12.423Z,0.89
2019-03-16T15:44:18.555Z,1.39
2019-03-16T15:49:24.598Z,1.37
2019-03-16T15:54:30.724Z,0.93
2019-03-16T15:59:36.710Z,0.88
2019-03-16T16:04:42.739Z,1.11
2019-03-16T16:09:48.791Z,1.09
2019-03-16T16:14:54.818Z,0.90
2019-03-16T16:20:00.871Z,0.92
2019-03-16T16:25:06.868Z,1.07
2019-03-16T16:30:12.895Z,1.00
2019-03-16T16:35:19.099Z,0.96
2019-03-16T16:40:25.166Z,0.81
2019-03-16T16:45:31.163Z,0.92
2019-03-16T16:50:37.265Z,1.13
2019-03-16T16:55:43.244Z,1.67
2019-03-16T17:00:49.280Z,1.77
2019-03-16T17:05:55.291Z,1.14
2019-03-16T17:11:01.309Z,1.88
2019-03-16T17:16:07.326Z,1.28
2019-03-16T17:21:13.412Z,1.83
2019-03-16T17:26:19.557Z,1.70
2019-03-16T17:31:25.601Z,1.54
2019-03-16T17:36:31.630Z,1.53
2019-03-16T17:41:37.830Z,1.32
2019-03-16T17:46:44.046Z,3.04
2019-03-16T17:51:50.171Z,1.69
2019-03-16T17:56:56.298Z,1.43
2019-03-16T18:02:02.338Z,1.58
2019-03-16T18:07:08.405Z,2.38
2019-03-16T18:12:14.406Z,2.26
2019-03-16T18:17:20.437Z,1.52
2019-03-16T18:22:26.457Z,1.65
2019-03-16T18:27:32.480Z,1.81
2019-03-16T18:32:38.495Z,1.48
2019-03-16T18:37:44.506Z,2.11
2019-03-16T18:42:50.519Z,1.24
2019-03-16T18:47:56.622Z,1.36
2019-03-16T18:53:02.621Z,1.41
2019-03-16T18:58:08.633Z,1.15
2019-03-16T19:03:14.707Z,1.35
2019-03-16T19:08:20.708Z,1.62
2019-03-16T19:13:26.743Z,1.80
2019-03-16T19:18:32.763Z,1.97
2019-03-16T19:23:38.760Z,1.91
2019-03-16T19:28:44.758Z,1.56
2019-03-16T19:33:52.901Z,1.58
2019-03-16T19:38:56.393Z,1.99
2019-03-16T19:44:02.439Z,1.60
2019-03-16T19:49:08.508Z,1.64
2019-03-16T19:54:14.520Z,2.32
2019-03-16T19:59:20.576Z,1.43
2019-03-16T20:04:35.976Z,1.72
2019-03-16T20:09:32.316Z,1.64
2019-03-16T20:14:38.363Z,1.69
2019-03-16T20:19:44.369Z,2.60
2019-03-16T20:24:50.409Z,2.00
2019-03-16T20:29:56.445Z,2.89
2019-03-16T20:35:02.444Z,1.73
2019-03-16T20:40:08.508Z,1.71
2019-03-16T20:45:14.566Z,2.40
2019-03-16T20:50:20.580Z,2.36
2019-03-16T20:55:26.689Z,2.18
2019-03-16T21:00:32.692Z,3.13
2019-03-16T21:05:38.722Z,2.54
2019-03-16T21:10:44.764Z,3.22
2019-03-16T21:15:50.832Z,2.32
2019-03-16T21:20:56.818Z,2.72
2019-03-16T21:26:02.980Z,3.46
2019-03-16T21:31:08.966Z,3.24
2019-03-16T21:36:15.020Z,3.25
2019-03-16T21:41:21.075Z,3.17
2019-03-16T21:46:27.079Z,2.61
2019-03-16T21:51:33.216Z,2.57
2019-03-16T21:56:39.262Z,2.71
2019-03-16T22:01:45.331Z,4.09
2019-03-16T22:06:51.363Z,3.13
2019-03-16T22:11:57.419Z,3.12
2019-03-16T22:17:03.415Z,2.51
2019-03-16T22:22:09.439Z,2.39
2019-03-16T22:27:15.473Z,3.55
2019-03-16T22:32:21.528Z,2.59
2019-03-16T22:37:27.734Z,1.82
2019-03-16T22:42:33.675Z,1.80
2019-03-16T22:47:39.741Z,1.28
2019-03-16T22:52:45.944Z,1.08
2019-03-16T22:57:51.967Z,1.20
2019-03-16T23:02:57.987Z,1.59
2019-03-16T23:08:04.056Z,1.16
2019-03-16T23:13:10.054Z,1.20
2019-03-16T23:18:16.089Z,1.25
2019-03-16T23:23:22.097Z,1.01
2019-03-16T23:28:28.180Z,1.01
2019-03-16T23:33:34.289Z,0.96
2019-03-16T23:38:40.252Z,0.90
2019-03-16T23:43:46.392Z,0.85
2019-03-16T23:48:52.343Z,1.14
2019-03-16T23:53:58.302Z,0.83
2019-03-16T23:59:04.292Z,1.40
